Carnival Pride — H3VU — position and weather

sailwx.info

Track history (hours):
 
Tides and Currents Weather Stations Pressure Air Temp Water Temp Dewpoint Dewpoint Depression Visibility Wind Speed Wind Dir Waves Ship Positions

Carnival Pride

Operator: Carnival Cruise Lines

Last reported at 2017-Nov-21 10:00 UTC. Time now 2017-Nov-25 04:08 UTC.
Position N 31°06' W 073°30'.

Type: Ship. MMSI: 354215000.

Wind from 100 at 30 knots

Barometer 1021.8 mb
Air temperature 22.0 ° C
Visibility: greater than 10.8 NM
Dewpoint 20.5 ° C
Water temperature 24.0 ° C

Date/timePositionNaut miles runAvg speedWind from/ knotsBaromVisibWave heightAir tempDewpointWater temp
2017-Nov-21 10:00N 31°06' W 073°30'51315.3 100 / 301021.810.8 22.020.524.0
2017-Nov-20 00:28N 39°16' W 076°36'0 0.0
2017-Nov-19 23:58N 39°16' W 076°36'0 0.0
2017-Nov-19 23:28N 39°16' W 076°36'0 0.0
2017-Nov-19 22:58N 39°16' W 076°36'0 0.0
2017-Nov-19 22:28N 39°16' W 076°36'0 0.0
2017-Nov-19 21:58N 39°16' W 076°36'0 0.0
2017-Nov-19 21:28N 39°16' W 076°36'0 0.0
2017-Nov-19 20:58N 39°16' W 076°36'0 0.0
2017-Nov-19 20:28N 39°16' W 076°36'0 0.0
2017-Nov-19 19:58N 39°16' W 076°36'0 0.0
2017-Nov-19 19:28N 39°16' W 076°36'0 0.0
2017-Nov-19 18:58N 39°16' W 076°36'0 0.0
2017-Nov-19 18:28N 39°16' W 076°36'0 0.0
2017-Nov-19 17:58N 39°16' W 076°36'0 0.0
2017-Nov-19 17:30N 39°16' W 076°36'2 3.0
2017-Nov-19 17:01N 39°15' W 076°34'3 6.8
2017-Nov-19 16:30N 39°13' W 076°31'5 9.7
2017-Nov-19 16:00N 39°10' W 076°26'713.7
2017-Nov-19 15:31N 39°04' W 076°24'714.7
2017-Nov-19 15:01N 38°56' W 076°23'510.7
2017-Nov-19 14:30N 38°51' W 076°24'1 2.2
2017-Nov-19 14:01N 38°50' W 076°25'0 0.0
2017-Nov-19 13:31N 38°50' W 076°25'0 0.1
2017-Nov-19 13:00N 38°50' W 076°25'0 0.2
2017-Nov-19 12:31N 38°50' W 076°25'0 0.2
2017-Nov-19 12:01N 38°50' W 076°25'1 1.3
2017-Nov-19 11:31N 38°51' W 076°25'0 0.7
2017-Nov-19 11:00N 38°51' W 076°24'816.0
2017-Nov-19 10:30N 38°43' W 076°26'2618.8
2017-Nov-19 09:08N 38°18' W 076°18'421.7
2017-Nov-19 08:55N 38°14' W 076°15'921.4
2017-Nov-19 08:29N 38°04' W 076°13'5618.8
2017-Nov-19 05:31N 37°09' W 076°09'218.6
2017-Nov-19 05:25N 37°07' W 076°08'818.5
2017-Nov-19 05:00N 37°01' W 076°02'612.7
2017-Nov-19 04:31N 36°56' W 075°57'510.4
2017-Nov-19 04:00N 36°53' W 075°52'610.7
2017-Nov-19 03:27N 36°50' W 075°46'33620.4
2017-Nov-18 11:00N 31°42' W 078°30'   120 / 151019.010.8 22.017.223.0
2017-Nov-14 10:00N 32°18' W 079°00'43413.6 030 / 201022.510.8 17.011.523.0
2017-Nov-13 02:00N 39°16' W 076°36'0 0.0
2017-Nov-13 01:30N 39°16' W 076°36'0 0.0
2017-Nov-13 01:00N 39°16' W 076°36'0 0.0
2017-Nov-13 00:30N 39°16' W 076°36'0 0.0
2017-Nov-13 00:00N 39°16' W 076°36'0 0.0
2017-Nov-12 23:30N 39°16' W 076°36'0 0.0
2017-Nov-12 23:00N 39°16' W 076°36'0 0.0
2017-Nov-12 22:30N 39°16' W 076°36'0 0.0
2017-Nov-12 22:00N 39°16' W 076°36'0 0.0
2017-Nov-12 21:30N 39°16' W 076°36'0 0.0
2017-Nov-12 21:00N 39°16' W 076°36'0 0.0
2017-Nov-12 20:30N 39°16' W 076°36'0 0.0
2017-Nov-12 20:00N 39°16' W 076°36'0 0.0
2017-Nov-12 19:30N 39°16' W 076°36'0 0.0
2017-Nov-12 19:00N 39°16' W 076°36'0 0.0
2017-Nov-12 18:30N 39°16' W 076°36'0 0.0
2017-Nov-12 18:00N 39°16' W 076°36'1 1.6
2017-Nov-12 17:31N 39°15' W 076°35'510.6
2017-Nov-12 17:01N 39°12' W 076°30'714.0
2017-Nov-12 16:31N 39°07' W 076°24'815.6
2017-Nov-12 16:01N 38°59' W 076°23'1019.9
2017-Nov-12 15:30N 38°49' W 076°25'1020.1
2017-Nov-12 15:00N 38°39' W 076°25'1319.2
2017-Nov-12 14:20N 38°26' W 076°22'616.2
2017-Nov-12 13:59N 38°21' W 076°19'1019.3
2017-Nov-12 13:28N 38°12' W 076°14'1021.7
2017-Nov-12 13:00N 38°02' W 076°13'1719.8
2017-Nov-12 12:09N 37°45' W 076°11'4118.2
2017-Nov-12 09:55N 37°05' W 076°06'819.2
2017-Nov-12 09:30N 36°58' W 075°60'4 8.7
2017-Nov-12 09:00N 36°56' W 075°56'5 9.0
2017-Nov-12 08:30N 36°53' W 075°52'610.8
2017-Nov-12 07:59N 36°50' W 075°46'8119.1
2017-Nov-12 03:46N 35°34' W 075°11'521.1
2017-Nov-12 03:30N 35°29' W 075°10'1121.1
2017-Nov-12 03:00N 35°18' W 075°11'169.7
2017-Nov-12 03:00N 35°18' W 075°12'1020.5 040 / 251030.310.8 15.013.2 8.0
2017-Nov-12 02:30N 35°08' W 075°14'1021.1
2017-Nov-12 02:00N 34°59' W 075°21'5919.6
2017-Nov-11 23:00N 34°18' W 076°12'23121.0 030 / 351031.910.8 15.011.325.0
2017-Nov-11 12:00N 31°54' W 079°48'4120.7 050 / 351026.810.8 22.013.423.0
2017-Nov-11 10:00N 31°18' W 080°12'   070 / 321023.210.8 22.013.423.0
Track history (hours):
 
Tides and Currents Weather Stations Pressure Air Temp Water Temp Dewpoint Dewpoint Depression Visibility Wind Speed Wind Dir Waves Ship Positions

Carnival Pride

Operator: Carnival Cruise Lines

Last reported at 2017-Nov-21 10:00 UTC. Time now 2017-Nov-25 04:08 UTC.
Position N 31°06' W 073°30'.

Type: Ship. MMSI: 354215000.

Wind from 100 at 30 knots

Barometer 1021.8 mb
Air temperature 22.0 ° C
Visibility: greater than 10.8 NM
Dewpoint 20.5 ° C
Water temperature 24.0 ° C

Date/timePositionNaut miles runAvg speedWind from/ knotsBaromVisibWave heightAir tempDewpointWater temp
2017-Nov-21 10:00N 31°06' W 073°30'51315.3 100 / 301021.810.8 22.020.524.0
2017-Nov-20 00:28N 39°16' W 076°36'0 0.0
2017-Nov-19 23:58N 39°16' W 076°36'0 0.0
2017-Nov-19 23:28N 39°16' W 076°36'0 0.0
2017-Nov-19 22:58N 39°16' W 076°36'0 0.0
2017-Nov-19 22:28N 39°16' W 076°36'0 0.0
2017-Nov-19 21:58N 39°16' W 076°36'0 0.0
2017-Nov-19 21:28N 39°16' W 076°36'0 0.0
2017-Nov-19 20:58N 39°16' W 076°36'0 0.0
2017-Nov-19 20:28N 39°16' W 076°36'0 0.0
2017-Nov-19 19:58N 39°16' W 076°36'0 0.0
2017-Nov-19 19:28N 39°16' W 076°36'0 0.0
2017-Nov-19 18:58N 39°16' W 076°36'0 0.0
2017-Nov-19 18:28N 39°16' W 076°36'0 0.0
2017-Nov-19 17:58N 39°16' W 076°36'0 0.0
2017-Nov-19 17:30N 39°16' W 076°36'2 3.0
2017-Nov-19 17:01N 39°15' W 076°34'3 6.8
2017-Nov-19 16:30N 39°13' W 076°31'5 9.7
2017-Nov-19 16:00N 39°10' W 076°26'713.7
2017-Nov-19 15:31N 39°04' W 076°24'714.7
2017-Nov-19 15:01N 38°56' W 076°23'510.7
2017-Nov-19 14:30N 38°51' W 076°24'1 2.2
2017-Nov-19 14:01N 38°50' W 076°25'0 0.0
2017-Nov-19 13:31N 38°50' W 076°25'0 0.1
2017-Nov-19 13:00N 38°50' W 076°25'0 0.2
2017-Nov-19 12:31N 38°50' W 076°25'0 0.2
2017-Nov-19 12:01N 38°50' W 076°25'1 1.3
2017-Nov-19 11:31N 38°51' W 076°25'0 0.7
2017-Nov-19 11:00N 38°51' W 076°24'816.0
2017-Nov-19 10:30N 38°43' W 076°26'2618.8
2017-Nov-19 09:08N 38°18' W 076°18'421.7
2017-Nov-19 08:55N 38°14' W 076°15'921.4
2017-Nov-19 08:29N 38°04' W 076°13'5618.8
2017-Nov-19 05:31N 37°09' W 076°09'218.6
2017-Nov-19 05:25N 37°07' W 076°08'818.5
2017-Nov-19 05:00N 37°01' W 076°02'612.7
2017-Nov-19 04:31N 36°56' W 075°57'510.4
2017-Nov-19 04:00N 36°53' W 075°52'610.7
2017-Nov-19 03:27N 36°50' W 075°46'33620.4
2017-Nov-18 11:00N 31°42' W 078°30'   120 / 151019.010.8 22.017.223.0
2017-Nov-14 10:00N 32°18' W 079°00'43413.6 030 / 201022.510.8 17.011.523.0
2017-Nov-13 02:00N 39°16' W 076°36'0 0.0
2017-Nov-13 01:30N 39°16' W 076°36'0 0.0
2017-Nov-13 01:00N 39°16' W 076°36'0 0.0
2017-Nov-13 00:30N 39°16' W 076°36'0 0.0
2017-Nov-13 00:00N 39°16' W 076°36'0 0.0
2017-Nov-12 23:30N 39°16' W 076°36'0 0.0
2017-Nov-12 23:00N 39°16' W 076°36'0 0.0
2017-Nov-12 22:30N 39°16' W 076°36'0 0.0
2017-Nov-12 22:00N 39°16' W 076°36'0 0.0
2017-Nov-12 21:30N 39°16' W 076°36'0 0.0
2017-Nov-12 21:00N 39°16' W 076°36'0 0.0
2017-Nov-12 20:30N 39°16' W 076°36'0 0.0
2017-Nov-12 20:00N 39°16' W 076°36'0 0.0
2017-Nov-12 19:30N 39°16' W 076°36'0 0.0
2017-Nov-12 19:00N 39°16' W 076°36'0 0.0
2017-Nov-12 18:30N 39°16' W 076°36'0 0.0
2017-Nov-12 18:00N 39°16' W 076°36'1 1.6
2017-Nov-12 17:31N 39°15' W 076°35'510.6
2017-Nov-12 17:01N 39°12' W 076°30'714.0
2017-Nov-12 16:31N 39°07' W 076°24'815.6
2017-Nov-12 16:01N 38°59' W 076°23'1019.9
2017-Nov-12 15:30N 38°49' W 076°25'1020.1
2017-Nov-12 15:00N 38°39' W 076°25'1319.2
2017-Nov-12 14:20N 38°26' W 076°22'616.2
2017-Nov-12 13:59N 38°21' W 076°19'1019.3
2017-Nov-12 13:28N 38°12' W 076°14'1021.7
2017-Nov-12 13:00N 38°02' W 076°13'1719.8
2017-Nov-12 12:09N 37°45' W 076°11'4118.2
2017-Nov-12 09:55N 37°05' W 076°06'819.2
2017-Nov-12 09:30N 36°58' W 075°60'4 8.7
2017-Nov-12 09:00N 36°56' W 075°56'5 9.0
2017-Nov-12 08:30N 36°53' W 075°52'610.8
2017-Nov-12 07:59N 36°50' W 075°46'8119.1
2017-Nov-12 03:46N 35°34' W 075°11'521.1
2017-Nov-12 03:30N 35°29' W 075°10'1121.1
2017-Nov-12 03:00N 35°18' W 075°11'169.7
2017-Nov-12 03:00N 35°18' W 075°12'1020.5 040 / 251030.310.8 15.013.2 8.0
2017-Nov-12 02:30N 35°08' W 075°14'1021.1
2017-Nov-12 02:00N 34°59' W 075°21'5919.6
2017-Nov-11 23:00N 34°18' W 076°12'23121.0 030 / 351031.910.8 15.011.325.0
2017-Nov-11 12:00N 31°54' W 079°48'4120.7 050 / 351026.810.8 22.013.423.0
2017-Nov-11 10:00N 31°18' W 080°12'   070 / 321023.210.8 22.013.423.0

Dump ship's entire track history